Time;durP1;ratioP1;P1;durP2;ratioP2;P2;SDS_P1;SDS_P2;PMS_P1;PMS_P2;Temp;Humidity;BMP_temperature;BMP_pressure;BME280_temperature;BME280_humidity;BME280_pressure;Samples;Min_cycle;Max_cycle;Signal;HPM_P1;HPM_P2
2023/08/21 00:01:01;;;;;;;10.27;6.68;;;;;;;22.44;73.69;99488.44;5019888;28;20033;-71
2023/08/21 00:03:26;;;;;;;9.38;6.40;;;;;;;22.33;73.20;99496.84;5019789;28;21909;-71
2023/08/21 00:05:52;;;;;;;12.45;7.18;;;;;;;21.69;74.88;99488.28;5026728;28;20033;-71
2023/08/21 00:08:17;;;;;;;11.55;6.95;;;;;;;21.29;75.94;99490.75;5020392;28;20043;-72
2023/08/21 00:10:43;;;;;;;9.90;6.80;;;;;;;21.41;76.42;99487.50;5026724;28;20119;-71
2023/08/21 00:13:08;;;;;;;8.68;6.80;;;;;;;21.37;76.22;99478.38;5026283;28;20033;-71
2023/08/21 00:15:34;;;;;;;11.77;6.38;;;;;;;21.58;74.90;99465.94;5023658;28;20037;-72
2023/08/21 00:18:00;;;;;;;11.32;7.13;;;;;;;21.58;74.99;99477.63;5021644;28;20037;-71
2023/08/21 00:20:26;;;;;;;11.65;6.70;;;;;;;21.74;74.79;99474.56;5025736;28;20026;-72
2023/08/21 00:22:51;;;;;;;14.43;7.10;;;;;;;21.62;74.79;99477.84;5026096;28;20025;-73
2023/08/21 00:25:16;;;;;;;9.75;6.47;;;;;;;21.80;74.05;99473.38;5021669;28;20038;-72
2023/08/21 00:27:42;;;;;;;8.75;6.70;;;;;;;22.19;73.71;99482.50;5028207;28;20029;-71
2023/08/21 00:30:08;;;;;;;12.30;6.47;;;;;;;21.84;73.92;99475.19;5026424;28;20048;-71
2023/08/21 00:32:33;;;;;;;6.38;5.78;;;;;;;22.23;73.64;99472.63;5026383;28;20465;-72
2023/08/21 00:34:58;;;;;;;8.57;6.10;;;;;;;21.76;75.30;99462.28;5027230;28;20580;-72
2023/08/21 00:37:24;;;;;;;8.02;6.32;;;;;;;21.68;74.93;99471.19;5019537;28;21312;-71
2023/08/21 00:39:49;;;;;;;10.32;5.75;;;;;;;21.23;76.23;99472.94;5026659;28;20378;-71
2023/08/21 00:42:14;;;;;;;10.48;6.18;;;;;;;21.90;75.46;99473.16;5029061;28;20071;-71
2023/08/21 00:44:40;;;;;;;14.13;6.43;;;;;;;21.95;73.44;99473.84;5024126;28;20128;-71
2023/08/21 00:47:05;;;;;;;7.85;5.85;;;;;;;21.08;76.00;99467.03;5017309;28;20073;-70
2023/08/21 00:49:32;;;;;;;7.68;6.55;;;;;;;22.00;75.04;99472.91;5025644;28;20493;-71
2023/08/21 00:51:59;;;;;;;11.20;6.25;;;;;;;21.86;73.45;99464.81;5024560;28;20401;-70
2023/08/21 00:54:24;;;;;;;15.05;6.80;;;;;;;21.75;74.90;99459.88;5025269;28;20029;-72
2023/08/21 00:56:52;;;;;;;7.25;6.13;;;;;;;21.65;74.59;99467.16;5021795;28;21786;-71
2023/08/21 00:59:18;;;;;;;10.27;6.40;;;;;;;21.53;75.38;99463.38;5022956;28;21529;-72
2023/08/21 01:01:44;;;;;;;9.15;6.25;;;;;;;21.78;74.17;99464.69;5021427;28;20057;-72
2023/08/21 01:04:10;;;;;;;6.28;5.68;;;;;;;21.82;74.85;99463.78;5022101;28;20044;-72
2023/08/21 01:06:35;;;;;;;5.55;5.05;;;;;;;21.94;73.82;99457.84;5023792;28;20041;-72
2023/08/21 01:09:28;;;;;;;8.88;6.93;;;;;;;21.41;75.41;99449.50;5015841;28;20425;-70
2023/08/21 01:12:04;;;;;;;9.15;6.28;;;;;;;20.77;77.84;99448.56;5024614;28;20646;-73
2023/08/21 01:15:09;;;;;;;12.13;7.28;;;;;;;21.14;76.60;99453.06;5028106;28;20477;-72
2023/08/21 01:17:37;;;;;;;8.57;6.47;;;;;;;22.15;73.91;99453.50;5022587;28;20040;-72
2023/08/21 01:20:03;;;;;;;6.45;5.53;;;;;;;22.10;73.66;99459.91;5026994;28;20029;-71
2023/08/21 01:22:40;;;;;;;13.68;7.22;;;;;;;21.78;73.77;99454.63;5023752;28;20124;-72
2023/08/21 01:25:07;;;;;;;7.65;6.05;;;;;;;22.03;73.28;99453.28;5027127;28;20044;-72
2023/08/21 01:27:33;;;;;;;8.82;6.18;;;;;;;21.24;75.95;99454.75;5022479;28;20037;-72
2023/08/21 01:30:00;;;;;;;10.57;6.50;;;;;;;21.25;76.63;99445.50;5025437;28;20021;-72
2023/08/21 01:32:31;;;;;;;8.63;6.07;;;;;;;20.90;76.35;99447.00;5022515;28;20029;-72
2023/08/21 01:34:58;;;;;;;12.10;7.05;;;;;;;20.83;77.16;99444.69;5023697;28;20025;-72
2023/08/21 01:37:25;;;;;;;13.02;7.38;;;;;;;20.95;76.35;99437.97;5025780;28;20044;-73
2023/08/21 01:39:50;;;;;;;11.70;6.78;;;;;;;20.81;77.19;99455.03;5028565;28;20116;-72
2023/08/21 01:42:15;;;;;;;9.65;5.95;;;;;;;20.81;76.54;99452.31;5029322;28;20116;-73
2023/08/21 01:44:41;;;;;;;10.07;6.90;;;;;;;20.77;77.17;99456.72;5025427;28;20080;-72
2023/08/21 01:47:07;;;;;;;8.88;5.70;;;;;;;20.93;76.43;99449.91;5026542;28;20061;-72
2023/08/21 01:49:32;;;;;;;13.10;5.78;;;;;;;21.31;75.22;99452.44;5027983;28;20086;-71
2023/08/21 01:51:57;;;;;;;6.38;5.78;;;;;;;21.41;75.68;99457.63;5043258;22;20038;-78
2023/08/21 01:54:23;;;;;;;8.70;6.05;;;;;;;22.20;72.80;99454.22;5015455;28;20033;-77
2023/08/21 01:56:48;;;;;;;6.50;5.25;;;;;;;22.53;71.82;99462.09;5011412;28;20049;-80
2023/08/21 01:59:16;;;;;;;9.98;6.25;;;;;;;22.70;71.07;99467.66;5042238;28;20025;-80
2023/08/21 02:01:41;;;;;;;5.82;5.25;;;;;;;22.64;71.38;99461.53;5034666;28;20029;-79
2023/08/21 02:04:06;;;;;;;10.25;5.47;;;;;;;22.04;72.08;99455.69;5032939;28;20029;-79
2023/08/21 02:06:32;;;;;;;8.25;5.80;;;;;;;21.46;73.08;99454.81;5031577;28;20378;-80
2023/08/21 02:08:58;;;;;;;8.35;5.25;;;;;;;21.33;73.92;99453.75;5027148;28;20034;-80
2023/08/21 02:11:23;;;;;;;8.50;5.20;;;;;;;21.30;74.39;99458.97;4997728;28;20406;-79
2023/08/21 02:13:49;;;;;;;7.22;5.35;;;;;;;22.08;72.89;99461.31;5035576;28;20031;-80
2023/08/21 02:16:14;;;;;;;7.85;4.70;;;;;;;22.15;71.43;99457.03;5014301;28;20037;-79
2023/08/21 02:18:39;;;;;;;8.05;5.20;;;;;;;22.39;71.80;99456.72;5023468;28;20063;-79
2023/08/21 02:21:05;;;;;;;4.65;4.20;;;;;;;22.39;71.56;99460.25;5012017;28;20025;-80
2023/08/21 02:23:30;;;;;;;6.10;4.93;;;;;;;22.47;71.36;99455.97;5032113;28;20042;-80
2023/08/21 02:25:55;;;;;;;8.30;4.75;;;;;;;22.06;72.31;99456.16;5010484;28;20120;-79
2023/08/21 02:28:21;;;;;;;5.47;4.97;;;;;;;22.35;71.56;99458.47;5030435;28;20060;-80
2023/08/21 02:30:46;;;;;;;5.43;4.85;;;;;;;22.08;71.11;99453.94;5025456;28;20366;-78
2023/08/21 02:33:12;;;;;;;10.10;4.95;;;;;;;21.91;72.50;99436.72;5030300;28;20076;-78
2023/08/21 02:35:37;;;;;;;7.65;4.63;;;;;;;22.00;72.15;99443.00;5032690;28;20029;-80
2023/08/21 02:38:02;;;;;;;10.88;5.05;;;;;;;22.41;71.23;99445.53;5033025;28;20120;-79
2023/08/21 02:40:28;;;;;;;6.45;4.78;;;;;;;22.30;71.61;99442.28;5025583;28;20033;-77
2023/08/21 02:42:53;;;;;;;5.88;4.43;;;;;;;22.10;71.64;99443.59;5028938;28;20029;-77
2023/08/21 02:45:19;;;;;;;5.50;4.32;;;;;;;22.09;72.34;99444.69;5030042;28;20087;-77
2023/08/21 02:47:45;;;;;;;9.20;4.82;;;;;;;21.67;72.21;99438.88;5030640;28;20087;-77
2023/08/21 02:50:10;;;;;;;7.75;4.70;;;;;;;21.73;73.00;99443.91;5018114;28;20048;-77
2023/08/21 02:52:36;;;;;;;7.38;4.78;;;;;;;21.54;73.86;99448.66;5025367;28;20037;-77
2023/08/21 02:55:02;;;;;;;6.20;4.25;;;;;;;21.06;73.62;99451.03;5024781;28;20027;-77
2023/08/21 02:57:28;;;;;;;7.15;4.82;;;;;;;21.85;73.12;99449.63;5028819;28;20077;-77
2023/08/21 02:59:54;;;;;;;7.38;4.80;;;;;;;21.67;73.01;99442.38;5026048;28;20037;-81
2023/08/21 03:02:20;;;;;;;6.53;4.57;;;;;;;22.11;71.75;99442.47;5020626;28;20497;-81
2023/08/21 03:04:46;;;;;;;8.48;4.50;;;;;;;22.33;70.89;99444.38;5021399;28;20040;-81
2023/08/21 03:07:12;;;;;;;6.53;4.22;;;;;;;22.36;70.45;99446.47;5023698;28;20033;-81
2023/08/21 03:09:38;;;;;;;5.10;4.63;;;;;;;22.31;70.81;99435.72;5010102;28;20037;-82
2023/08/21 03:12:04;;;;;;;8.95;4.55;;;;;;;22.16;71.36;99436.09;5020457;28;20038;-82
2023/08/21 03:14:29;;;;;;;6.03;3.95;;;;;;;22.23;70.77;99439.19;5029980;28;20041;-79
2023/08/21 03:16:55;;;;;;;4.30;3.90;;;;;;;22.30;70.33;99440.34;5028112;28;20055;-80
2023/08/21 03:19:20;;;;;;;6.93;5.15;;;;;;;22.20;70.57;99450.69;5027783;28;20144;-81
2023/08/21 03:21:45;;;;;;;5.95;4.85;;;;;;;22.24;70.75;99444.31;5021969;28;20029;-81
2023/08/21 03:24:11;;;;;;;12.50;5.82;;;;;;;22.22;70.45;99445.72;5030293;28;20065;-80
2023/08/21 03:26:36;;;;;;;6.95;4.57;;;;;;;22.14;70.96;99446.47;5028549;28;20037;-81
2023/08/21 03:29:02;;;;;;;4.30;3.90;;;;;;;22.02;71.35;99430.72;5028260;28;20045;-80
2023/08/21 03:31:27;;;;;;;5.93;4.32;;;;;;;21.93;71.06;99431.78;5028675;28;20033;-80
2023/08/21 03:33:53;;;;;;;7.10;3.47;;;;;;;22.03;70.89;99431.53;5023019;28;20030;-81
2023/08/21 03:36:19;;;;;;;9.43;4.97;;;;;;;22.06;70.83;99434.41;5029651;28;20033;-81
2023/08/21 03:38:44;;;;;;;8.68;4.47;;;;;;;22.07;70.59;99427.06;5032739;28;20129;-81
2023/08/21 03:41:11;;;;;;;6.38;3.97;;;;;;;22.08;70.44;99434.13;5032880;28;20060;-80
2023/08/21 03:43:36;;;;;;;5.47;3.95;;;;;;;22.01;70.68;99431.03;5007686;28;20505;-78
2023/08/21 03:46:01;;;;;;;9.02;4.57;;;;;;;21.92;71.03;99430.97;5028643;28;20037;-79
2023/08/21 03:48:27;;;;;;;5.28;3.60;;;;;;;21.85;71.11;99433.31;5012944;28;20033;-79
2023/08/21 03:50:52;;;;;;;4.78;4.20;;;;;;;21.92;70.71;99428.25;5034373;28;20029;-78
2023/08/21 03:53:18;;;;;;;5.07;3.80;;;;;;;21.88;70.76;99429.19;5027328;28;20033;-78
2023/08/21 03:55:43;;;;;;;6.55;4.15;;;;;;;21.92;70.61;99428.25;5031963;28;20134;-79
2023/08/21 03:58:09;;;;;;;5.95;3.85;;;;;;;21.83;71.01;99427.38;5015482;28;20041;-79
2023/08/21 04:00:34;;;;;;;5.32;4.32;;;;;;;21.70;71.27;99436.34;5012176;28;20051;-78
2023/08/21 04:02:59;;;;;;;5.85;4.57;;;;;;;21.61;71.49;99430.03;5031628;28;20037;-80
2023/08/21 04:05:28;;;;;;;5.65;3.58;;;;;;;21.69;70.80;99429.28;5021466;28;20034;-83
2023/08/21 04:07:53;;;;;;;7.10;4.13;;;;;;;21.58;71.06;99419.75;5030663;28;20483;-82
2023/08/21 04:10:18;;;;;;;6.55;4.28;;;;;;;21.72;71.02;99436.03;5030665;28;20029;-81
2023/08/21 04:12:44;;;;;;;10.25;4.30;;;;;;;21.73;70.73;99433.03;5034200;28;20035;-81
2023/08/21 04:15:10;;;;;;;6.78;4.15;;;;;;;21.69;70.85;99442.88;5005535;28;20490;-82
2023/08/21 04:17:35;;;;;;;7.22;3.83;;;;;;;21.68;70.97;99444.00;5025786;28;20859;-81
2023/08/21 04:20:00;;;;;;;7.32;4.22;;;;;;;21.58;70.97;99445.03;5030913;28;20021;-81
2023/08/21 04:22:26;;;;;;;7.68;4.22;;;;;;;21.58;70.61;99445.03;5025463;28;20280;-81
2023/08/21 04:24:51;;;;;;;7.82;4.22;;;;;;;21.46;71.37;99449.38;5020883;28;20470;-81
2023/08/21 04:27:16;;;;;;;13.90;4.40;;;;;;;21.57;70.79;99448.06;5021282;28;20059;-81
2023/08/21 04:29:42;;;;;;;8.15;3.50;;;;;;;21.53;70.88;99460.66;5026963;28;20083;-81
2023/08/21 04:32:07;;;;;;;4.13;3.72;;;;;;;21.01;72.33;99453.03;5025686;28;20043;-81
2023/08/21 04:34:33;;;;;;;4.97;4.47;;;;;;;20.44;73.77;99463.31;4995507;28;20132;-80
2023/08/21 04:36:58;;;;;;;6.82;4.78;;;;;;;20.46;74.11;99463.81;5023670;28;20040;-81
2023/08/21 04:39:24;;;;;;;8.85;3.92;;;;;;;20.96;72.95;99453.13;5004824;28;20030;-81
2023/08/21 04:41:49;;;;;;;11.55;4.95;;;;;;;21.28;71.83;99467.41;5026421;28;20089;-80
2023/08/21 04:44:15;;;;;;;6.70;4.20;;;;;;;21.49;71.02;99465.09;4995765;28;20105;-81
2023/08/21 04:46:40;;;;;;;5.68;4.20;;;;;;;21.38;71.35;99471.84;5030993;28;20462;-81
2023/08/21 04:49:05;;;;;;;5.40;4.28;;;;;;;21.34;71.37;99481.72;5033328;28;20037;-81
2023/08/21 04:51:31;;;;;;;5.25;4.13;;;;;;;21.36;71.01;99474.84;5015717;28;20124;-84
2023/08/21 04:53:56;;;;;;;4.45;3.58;;;;;;;21.25;71.42;99475.38;5032000;28;20116;-81
2023/08/21 04:56:21;;;;;;;6.28;4.20;;;;;;;21.04;72.58;99468.72;5028971;28;20059;-80
2023/08/21 04:58:47;;;;;;;9.18;4.38;;;;;;;20.98;72.51;99476.16;5028805;28;20789;-80
2023/08/21 05:01:12;;;;;;;5.03;3.80;;;;;;;21.04;72.68;99474.16;5031005;28;20332;-79
2023/08/21 05:03:37;;;;;;;5.25;4.05;;;;;;;20.92;72.96;99474.66;5018612;28;20097;-83
2023/08/21 05:06:03;;;;;;;7.68;4.82;;;;;;;20.65;74.15;99469.16;5034131;28;20041;-80
2023/08/21 05:08:28;;;;;;;12.18;4.60;;;;;;;20.58;74.45;99480.41;5017574;28;20044;-78
2023/08/21 05:10:58;;;;;;;7.32;5.10;;;;;;;20.22;76.60;99475.88;5034780;28;20559;-77
2023/08/21 05:13:23;;;;;;;7.13;4.85;;;;;;;19.98;78.07;99484.09;5035224;28;20521;-78
2023/08/21 05:15:56;;;;;;;5.72;4.88;;;;;;;19.85;78.31;99487.53;5036540;28;20045;-78
2023/08/21 05:18:23;;;;;;;7.10;4.60;;;;;;;19.77;78.53;99486.28;5036336;28;20033;-79
2023/08/21 05:20:49;;;;;;;8.93;5.25;;;;;;;19.92;78.84;99472.50;5036275;28;20027;-81
2023/08/21 05:23:15;;;;;;;11.60;5.57;;;;;;;19.93;79.49;99474.13;5038461;28;20033;-80
2023/08/21 05:25:41;;;;;;;7.75;4.57;;;;;;;19.72;79.70;99482.84;5034988;28;20040;-80
2023/08/21 05:28:06;;;;;;;9.00;5.10;;;;;;;19.53;79.79;99485.53;5034680;28;20084;-80
2023/08/21 05:30:32;;;;;;;7.95;5.47;;;;;;;19.50;79.74;99482.59;5040827;28;20033;-80
2023/08/21 05:32:58;;;;;;;13.40;4.13;;;;;;;19.46;79.67;99474.28;5039490;28;20083;-79
2023/08/21 05:35:23;;;;;;;14.52;5.18;;;;;;;19.71;79.31;99476.63;5038565;28;20033;-78
2023/08/21 05:37:49;;;;;;;3.92;3.40;;;;;;;20.26;76.99;99476.91;5028595;28;20536;-79
2023/08/21 05:40:14;;;;;;;5.05;3.90;;;;;;;20.65;75.94;99482.72;5026770;28;20565;-79
2023/08/21 05:42:39;;;;;;;7.22;4.05;;;;;;;21.24;73.52;99484.63;5036834;28;20029;-79
2023/08/21 05:45:05;;;;;;;6.25;3.72;;;;;;;21.31;73.40;99490.44;5033609;28;20692;-78
2023/08/21 05:47:31;;;;;;;5.20;3.75;;;;;;;21.41;73.26;99493.75;5032825;28;20177;-80
2023/08/21 05:49:56;;;;;;;5.70;4.15;;;;;;;21.27;73.52;99492.97;5036925;28;20021;-80
2023/08/21 05:52:22;;;;;;;5.85;3.45;;;;;;;21.57;72.18;99492.34;5034682;28;20052;-81
2023/08/21 05:54:48;;;;;;;5.90;4.30;;;;;;;20.53;75.61;99490.56;5039157;28;20022;-79
2023/08/21 05:57:13;;;;;;;10.43;4.97;;;;;;;20.31;77.31;99498.53;5035734;28;20108;-79
2023/08/21 05:59:46;;;;;;;9.13;5.70;;;;;;;20.41;76.55;99493.72;5040693;28;20029;-79
2023/08/21 06:02:12;;;;;;;11.82;5.45;;;;;;;20.02;76.89;99494.06;5038747;28;20081;-82
2023/08/21 06:04:41;;;;;;;9.02;3.75;;;;;;;20.32;77.21;99495.50;5036381;28;20096;-82
2023/08/21 06:07:07;;;;;;;5.93;3.67;;;;;;;20.68;75.88;99501.13;5022835;28;20057;-81
2023/08/21 06:09:33;;;;;;;10.05;5.13;;;;;;;19.99;77.02;99496.53;5030783;28;20056;-81
2023/08/21 06:12:00;;;;;;;8.38;4.72;;;;;;;19.70;77.68;99496.66;5026353;28;20025;-81
2023/08/21 06:14:28;;;;;;;7.43;4.40;;;;;;;19.79;78.74;99505.75;5024112;28;20057;-81
2023/08/21 06:17:05;;;;;;;6.88;4.85;;;;;;;19.71;78.78;99502.91;5017517;28;20064;-81
2023/08/21 06:19:30;;;;;;;9.20;5.22;;;;;;;19.70;79.06;99488.53;5021991;28;20525;-83
2023/08/21 06:21:56;;;;;;;8.80;5.18;;;;;;;19.42;79.36;99511.94;5020922;28;20037;-81
2023/08/21 06:24:22;;;;;;;5.72;5.10;;;;;;;19.60;79.67;99504.94;5046672;28;20049;-82
2023/08/21 06:26:47;;;;;;;11.30;7.32;;;;;;;19.64;80.29;99511.38;5041251;28;20026;-82
2023/08/21 06:29:12;;;;;;;12.65;6.35;;;;;;;19.53;80.67;99518.03;5032615;28;20060;-83
2023/08/21 06:31:38;;;;;;;9.43;5.97;;;;;;;19.58;80.20;99511.75;5033645;28;20068;-82
2023/08/21 06:34:03;;;;;;;12.13;5.53;;;;;;;19.67;80.71;99513.53;5037310;28;20041;-84
2023/08/21 06:36:28;;;;;;;9.18;5.55;;;;;;;19.78;80.24;99503.34;5039759;28;20041;-82
2023/08/21 06:38:55;;;;;;;10.88;5.18;;;;;;;20.07;79.86;99523.00;5014280;28;20112;-82
2023/08/21 06:41:21;;;;;;;12.82;5.10;;;;;;;20.75;75.88;99518.63;5024259;28;20052;-82
2023/08/21 06:43:46;;;;;;;8.80;5.28;;;;;;;20.47;77.76;99516.94;5006197;28;20470;-83
2023/08/21 06:46:12;;;;;;;6.05;4.25;;;;;;;20.37;77.60;99513.59;5030193;28;21517;-81
2023/08/21 06:48:40;;;;;;;6.93;4.03;;;;;;;20.39;77.17;99508.69;5027219;28;20030;-81
2023/08/21 06:51:06;;;;;;;10.75;4.68;;;;;;;20.30;77.17;99516.69;5028735;28;20022;-82
2023/08/21 06:53:32;;;;;;;12.05;4.38;;;;;;;20.42;76.67;99514.31;5033160;28;20036;-81
2023/08/21 06:55:57;;;;;;;6.72;4.30;;;;;;;20.15;77.40;99519.59;4996439;28;20486;-79
2023/08/21 06:58:23;;;;;;;10.05;4.18;;;;;;;20.21;75.80;99506.78;5031437;28;20044;-79
2023/08/21 07:00:48;;;;;;;4.85;3.55;;;;;;;20.56;75.49;99515.16;5025882;28;20021;-80
2023/08/21 07:03:14;;;;;;;5.75;3.72;;;;;;;20.85;75.90;99513.03;5027792;28;20148;-80
2023/08/21 07:05:39;;;;;;;6.55;4.22;;;;;;;20.42;75.86;99505.38;5006751;28;20136;-79
2023/08/21 07:08:05;;;;;;;4.90;4.07;;;;;;;20.23;76.37;99510.81;5032565;28;20026;-80
2023/08/21 07:10:35;;;;;;;10.90;4.07;;;;;;;20.30;76.89;99513.97;5024173;28;20033;-78
2023/08/21 07:13:01;;;;;;;6.32;4.00;;;;;;;20.58;74.69;99515.66;5028509;28;20371;-80
2023/08/21 07:15:26;;;;;;;6.45;3.33;;;;;;;20.60;76.03;99520.78;5028315;28;20083;-79
2023/08/21 07:17:52;;;;;;;8.10;3.42;;;;;;;20.65;73.74;99524.22;5014555;28;20532;-79
2023/08/21 07:20:17;;;;;;;6.03;3.67;;;;;;;20.79;74.94;99521.56;5009427;28;20490;-79
2023/08/21 07:22:43;;;;;;;6.20;3.75;;;;;;;20.52;73.12;99516.06;5027627;28;20500;-79
2023/08/21 07:25:08;;;;;;;7.70;4.25;;;;;;;20.90;72.13;99518.34;5034849;28;20028;-80
2023/08/21 07:27:33;;;;;;;6.13;4.35;;;;;;;20.62;72.31;99524.81;5032608;28;20393;-80
2023/08/21 07:29:59;;;;;;;8.15;3.83;;;;;;;20.39;73.35;99530.38;5030195;28;21080;-83
2023/08/21 07:32:24;;;;;;;6.93;4.25;;;;;;;21.05;74.67;99521.94;5031872;28;20076;-79
2023/08/21 07:34:56;;;;;;;3.95;3.08;;;;;;;21.78;72.46;99517.16;5030966;28;20112;-79
2023/08/21 07:37:21;;;;;;;8.35;2.85;;;;;;;21.26;71.78;99517.69;5026908;28;20033;-79
2023/08/21 07:39:46;;;;;;;7.72;3.17;;;;;;;20.73;72.83;99525.44;5037324;28;20052;-80
2023/08/21 07:42:12;;;;;;;6.32;3.70;;;;;;;21.09;73.62;99514.78;5027674;28;20037;-79
2023/08/21 07:44:39;;;;;;;4.38;3.45;;;;;;;21.17;72.43;99520.31;5031030;28;20029;-79
2023/08/21 07:47:05;;;;;;;6.15;3.35;;;;;;;21.41;73.28;99520.09;5026521;28;20036;-79
2023/08/21 07:49:31;;;;;;;7.53;3.67;;;;;;;21.17;71.86;99514.88;5032090;28;20026;-79
2023/08/21 07:51:56;;;;;;;6.90;3.65;;;;;;;21.45;72.22;99521.09;5029211;28;20034;-80
2023/08/21 07:54:21;;;;;;;8.98;3.58;;;;;;;21.51;73.06;99520.69;5032537;28;20064;-79
2023/08/21 07:56:47;;;;;;;9.55;4.43;;;;;;;21.24;72.57;99519.91;5030287;28;20029;-81
2023/08/21 07:59:13;;;;;;;7.80;4.55;;;;;;;21.61;71.21;99515.06;5036174;28;20048;-79
2023/08/21 08:01:38;;;;;;;6.43;4.50;;;;;;;21.67;71.27;99522.00;5015174;28;20120;-80
2023/08/21 08:04:04;;;;;;;10.50;4.65;;;;;;;21.41;73.39;99517.41;5037290;28;20072;-79
2023/08/21 08:06:30;;;;;;;6.32;3.85;;;;;;;22.38;70.64;99518.50;5036568;28;20375;-79
2023/08/21 08:08:55;;;;;;;4.13;3.70;;;;;;;22.90;68.89;99510.66;5032595;28;20099;-81
2023/08/21 08:11:21;;;;;;;7.13;4.82;;;;;;;22.54;70.66;99512.69;5002318;28;20560;-79
2023/08/21 08:13:46;;;;;;;6.60;4.03;;;;;;;22.26;72.14;99509.28;5032155;28;20033;-80
2023/08/21 08:16:12;;;;;;;7.35;3.35;;;;;;;22.80;70.31;99519.13;5031967;28;20040;-79
2023/08/21 08:18:37;;;;;;;5.43;3.80;;;;;;;22.69;70.63;99517.78;5032138;28;20040;-79
2023/08/21 08:21:02;;;;;;;9.10;3.97;;;;;;;23.16;69.11;99511.59;5026865;28;20079;-80
2023/08/21 08:23:28;;;;;;;5.82;3.92;;;;;;;22.42;70.96;99498.81;5032919;28;20067;-79
2023/08/21 08:25:53;;;;;;;7.90;4.53;;;;;;;22.75;70.89;99516.53;5035590;28;20025;-80
2023/08/21 08:28:18;;;;;;;8.98;4.85;;;;;;;23.16;69.67;99506.13;5036020;28;20057;-79
2023/08/21 08:30:45;;;;;;;5.60;3.88;;;;;;;23.50;68.38;99511.72;5030850;28;20444;-81
2023/08/21 08:33:10;;;;;;;7.50;3.83;;;;;;;23.35;69.71;99514.88;5037483;28;20134;-80
2023/08/21 08:35:36;;;;;;;7.22;4.25;;;;;;;23.17;69.73;99512.41;5036922;28;20068;-80
2023/08/21 08:38:02;;;;;;;8.73;4.88;;;;;;;23.11;69.81;99512.53;5026160;28;20057;-79
2023/08/21 08:40:27;;;;;;;8.43;4.30;;;;;;;23.48;68.39;99503.06;5028794;28;20060;-79
2023/08/21 08:42:53;;;;;;;8.90;4.15;;;;;;;23.49;69.23;99514.78;5030672;28;20021;-80
2023/08/21 08:45:32;;;;;;;5.32;4.28;;;;;;;23.74;68.18;99503.13;5023087;28;20110;-80
2023/08/21 08:48:03;;;;;;;9.23;4.90;;;;;;;23.61;69.51;99506.78;5014284;28;20037;-80
2023/08/21 08:50:31;;;;;;;5.55;4.18;;;;;;;23.73;69.22;99504.25;5011925;28;20047;-80
2023/08/21 08:53:01;;;;;;;9.18;5.00;;;;;;;23.02;69.75;99508.97;5007134;28;20040;-79
2023/08/21 08:55:26;;;;;;;9.80;5.88;;;;;;;23.18;69.44;99509.34;5022225;28;20037;-78
2023/08/21 08:57:53;;;;;;;8.65;5.53;;;;;;;23.52;68.27;99500.53;5021133;28;20034;-80
2023/08/21 09:00:35;;;;;;;11.32;4.70;;;;;;;23.79;68.51;99506.50;5003304;28;20034;-82
2023/08/21 09:03:01;;;;;;;7.03;3.97;;;;;;;23.81;68.54;99500.72;5027021;28;20029;-81
2023/08/21 09:05:26;;;;;;;9.07;4.78;;;;;;;23.47;68.98;99501.47;5033818;28;20044;-80
2023/08/21 09:08:24;;;;;;;7.55;4.32;;;;;;;23.67;69.25;99506.34;5026674;28;20030;-78
2023/08/21 09:10:50;;;;;;;8.45;4.53;;;;;;;23.83;68.84;99510.19;5006401;28;20509;-80
2023/08/21 09:13:17;;;;;;;6.75;3.97;;;;;;;23.68;69.38;99505.19;5024317;28;20034;-80
2023/08/21 09:15:44;;;;;;;7.28;4.00;;;;;;;23.70;69.25;99510.31;5034228;28;20071;-80
2023/08/21 09:18:11;;;;;;;10.85;4.22;;;;;;;23.77;67.82;99499.75;5015885;28;20500;-80
2023/08/21 09:20:37;;;;;;;7.72;4.05;;;;;;;24.26;66.58;99495.78;5031648;28;20017;-80
2023/08/21 09:23:03;;;;;;;8.57;5.32;;;;;;;23.73;68.72;99512.41;5029831;28;20104;-80
2023/08/21 09:25:34;;;;;;;7.85;3.92;;;;;;;24.10;68.44;99511.03;5036016;28;20033;-82
2023/08/21 09:27:59;;;;;;;5.53;4.45;;;;;;;24.26;67.32;99501.25;5034514;28;20084;-83
2023/08/21 09:30:24;;;;;;;8.18;4.82;;;;;;;23.67;67.83;99506.34;5027415;28;20034;-83
2023/08/21 09:33:04;;;;;;;9.40;5.03;;;;;;;23.28;68.22;99500.91;5035586;28;21849;-80
2023/08/21 09:35:32;;;;;;;9.77;4.82;;;;;;;23.29;68.86;99493.53;5026450;28;20545;-79
2023/08/21 09:37:59;;;;;;;9.40;5.45;;;;;;;23.50;68.06;99500.03;5026374;28;20037;-80
2023/08/21 09:40:24;;;;;;;8.60;5.45;;;;;;;23.56;68.72;99505.03;5028546;28;20160;-80
2023/08/21 09:42:54;;;;;;;5.97;4.68;;;;;;;23.54;68.39;99495.56;5018490;28;20040;-80
2023/08/21 09:45:24;;;;;;;7.25;5.07;;;;;;;23.90;67.86;99495.25;5011144;28;20030;-80
2023/08/21 09:47:54;;;;;;;8.10;5.20;;;;;;;23.79;69.22;99503.75;5036734;28;20022;-80
2023/08/21 09:50:20;;;;;;;10.10;6.22;;;;;;;23.63;68.60;99501.84;5044617;28;20359;-80
2023/08/21 09:52:45;;;;;;;9.50;4.50;;;;;;;24.14;68.48;99492.91;5029626;28;20120;-80
2023/08/21 09:55:13;;;;;;;8.70;4.25;;;;;;;24.44;68.62;99479.06;5032773;28;20433;-80
2023/08/21 09:57:39;;;;;;;8.23;5.38;;;;;;;24.38;67.99;99483.09;5031421;28;20041;-80
2023/08/21 10:00:15;;;;;;;11.57;5.05;;;;;;;24.69;67.58;99476.59;5038292;28;20026;-79
2023/08/21 10:02:42;;;;;;;11.40;5.82;;;;;;;24.44;67.88;99481.78;5035647;28;20106;-80
2023/08/21 10:05:10;;;;;;;11.55;5.82;;;;;;;24.50;66.51;99472.31;5035109;28;20037;-79
2023/08/21 10:07:36;;;;;;;9.68;6.05;;;;;;;24.32;65.89;99472.66;5033158;28;20025;-80
2023/08/21 10:10:01;;;;;;;7.18;4.80;;;;;;;25.16;66.09;99468.06;5034151;28;20089;-80
2023/08/21 10:12:27;;;;;;;13.77;5.88;;;;;;;25.22;65.28;99474.97;5037675;28;20101;-80
2023/08/21 10:14:52;;;;;;;8.65;5.50;;;;;;;25.62;64.53;99478.13;5035362;28;20044;-80
2023/08/21 10:17:19;;;;;;;6.25;5.35;;;;;;;25.82;63.71;99474.63;5035427;28;20029;-80
2023/08/21 10:19:52;;;;;;;10.57;5.82;;;;;;;25.48;64.37;99463.13;5029948;28;20030;-80
2023/08/21 10:22:38;;;;;;;10.32;5.85;;;;;;;25.69;64.19;99467.47;5035484;28;20021;-80
2023/08/21 10:25:39;;;;;;;6.55;5.00;;;;;;;25.31;65.19;99459.31;5017441;28;20061;-80
2023/08/21 10:28:06;;;;;;;8.38;5.95;;;;;;;25.53;62.78;99463.75;5026232;28;20034;-80
2023/08/21 10:30:31;;;;;;;11.40;5.07;;;;;;;25.71;64.26;99464.41;5022352;28;20033;-80
2023/08/21 10:32:58;;;;;;;7.38;4.68;;;;;;;25.14;64.20;99462.16;5021818;28;20030;-79
2023/08/21 10:35:29;;;;;;;8.20;4.85;;;;;;;26.15;63.72;99460.22;5024231;28;20041;-80
2023/08/21 10:38:17;;;;;;;11.13;4.93;;;;;;;25.90;64.00;99456.53;5032482;28;20488;-81
2023/08/21 10:41:06;;;;;;;17.70;5.75;;;;;;;26.15;63.02;99461.00;5030707;28;20041;-81
2023/08/21 10:43:43;;;;;;;12.70;6.97;;;;;;;25.30;64.26;99465.94;5031358;28;20053;-81
2023/08/21 10:46:09;;;;;;;7.40;4.50;;;;;;;26.57;62.81;99457.06;5034615;28;20093;-80
2023/08/21 10:48:35;;;;;;;9.20;5.40;;;;;;;26.57;63.25;99451.56;5047435;28;20060;-82
2023/08/21 10:51:05;;;;;;;8.60;5.38;;;;;;;26.14;61.73;99464.09;5010840;28;20037;-81
2023/08/21 10:53:32;;;;;;;9.40;5.95;;;;;;;26.49;62.99;99468.09;5029992;28;20040;-80
2023/08/21 10:56:01;;;;;;;10.13;5.80;;;;;;;26.62;61.71;99465.06;5028250;28;20056;-80
2023/08/21 10:58:27;;;;;;;6.82;5.05;;;;;;;26.62;61.11;99462.31;5027595;28;20053;-78
2023/08/21 11:01:01;;;;;;;7.50;5.32;;;;;;;27.01;61.62;99462.84;5013217;28;20065;-80
2023/08/21 11:03:27;;;;;;;5.57;4.70;;;;;;;27.51;60.18;99460.59;5029422;28;20033;-79
2023/08/21 11:06:02;;;;;;;7.20;5.32;;;;;;;26.38;62.13;99456.78;5028214;28;20025;-79
2023/08/21 11:08:28;;;;;;;;;;;;;;;26.94;59.79;99463.41;5034979;28;20029;-80
2023/08/21 11:10:53;;;;;;;6.50;4.38;;;;;;;27.22;60.96;99458.03;5029862;28;20015;-78
2023/08/21 11:13:19;;;;;;;10.02;5.45;;;;;;;26.46;60.43;99450.41;5027183;28;20497;-78
2023/08/21 11:15:45;;;;;;;6.88;4.40;;;;;;;26.67;59.75;99453.88;5022550;28;20044;-78
2023/08/21 11:18:10;;;;;;;6.82;4.72;;;;;;;27.09;60.64;99453.72;5020415;28;20450;-79
2023/08/21 11:20:36;;;;;;;8.70;4.95;;;;;;;26.64;60.50;99449.09;5026213;28;20088;-79
2023/08/21 11:23:09;;;;;;;10.00;4.90;;;;;;;27.14;59.94;99456.22;5029329;28;20025;-79
2023/08/21 11:25:37;;;;;;;6.78;4.55;;;;;;;27.42;58.03;99451.69;5035167;28;20036;-81
2023/08/21 11:28:04;;;;;;;8.82;5.43;;;;;;;26.73;59.18;99449.78;5041075;28;20521;-80
2023/08/21 11:30:32;;;;;;;7.38;4.88;;;;;;;27.66;58.59;99451.63;5037482;28;20017;-80